DAUO/ELU METAR and TAF weather

Enter ICAO airport designator
Station Type Date Time Source
DAUO METAR 2021/01/22 07:00 UTC NOAA

DAUO 220700Z 21004KT 9999 FEW033 05/M03 Q1021


Station Type Date Time Source
DAUO Decoded METAR 2021/01/22 07:00 UTC NOAA

El Oued, Algeria (DAUO) 33-30N 006-07E 63M
Jan 22, 2021 - 02:00 AM EST / 2021.01.22 0700 UTC
Wind: from the SSW (210 degrees) at 5 MPH (4 KT):0
Visibility: greater than 7 mile(s):0
Sky conditions: mostly clear
Temperature: 41 F (5 C)
Dew Point: 26 F (-3 C)
Relative Humidity: 56%
Pressure (altimeter): 30.15 in. Hg (1021 hPa)
ob: DAUO 220700Z 21004KT 9999 FEW033 05/M03 Q1021
cycle: 7

Station Type Date Time Source
DAUO TAF 2017/11/09 18:03 UTC NOAA

TAF DAUO 091700Z 0918/1009 28010KT 9999 SCT033 SCT100 PROB30
TEMPO 0918/0924 28015G25KT 5000 -TSRA FEW036CB

Example: see airport list